Bunker Hill, KS (67626)

11:34 PM CDT del 18 Aprile 2015 (GMT -0500)
Russell Municipal | | Change Station
CLOSE
Current Station
Aeroporto
Location: Russell,
Altitudine: 1864 ft
Stazioni meteo nelle vicinanze

Alt. 1864 ft 38.87 °N, 98.81 °W | Updated 41 minutes ago

Coperto
Coperto
51 °F
Sembra 51 °F
N
8
Vento Variabile Vento da NE

Oggi
Massima -- | Minima -- °F
--% Possibilità di precip.
Ieri
Massima -- | Minima -- °F
Precip. -- in
6:54 AM 8:14 PM
Luna nuova, 0% visible
Pressione 29.78 in
Visibilità 10.0 miglia
Nuvole Nubi sparse 7500 ft
Punto di rugiada 48 °F
Umidità 89%
Piovosità 0.06 in
Spessore del manto nevoso Non disponibile.
Raggi UV 0 fuori da 12
Polline 8.10 fuori da 12
Qualità dell'aria Non disponibile.
Flu Activity Sporadic
METAR KRSL 190353Z AUTO 04007KT 10SM SCT075 11/09 A2979 RMK AO2 RAB27E42 SLP083 P0000 T01060089

More Conditions Fewer Conditions

Pressione 29.78 in
Visibilità 10.0 miglia
Nuvole Nubi sparse 7500 ft
Punto di rugiada 48 °F
Umidità 89%
Piovosità 0.06 in
Spessore del manto nevoso Non disponibile.
Raggi UV 0 fuori da 12
Polline 8.10 fuori da 12
Qualità dell'aria Non disponibile.
Flu Activity Sporadic
METAR KRSL 190353Z AUTO 04007KT 10SM SCT075 11/09 A2979 RMK AO2 RAB27E42 SLP083 P0000 T01060089

More Conditions Fewer Conditions

10-Day Weather Forecast

Almanac

Astronomia

Apr. 18, 2015 Alba Tramonto
Ora attuale
Crepuscolo civile
Crepuscolo nautico
Crepuscolo astronomico
Luna
Estensione della luce visibile
Lunghezza del giorno
Tomorrow will be .
, % of the Moon is Illuminated

Gli estremi di oggi

State Highs State Lows

Community

WunderPhotos

Upload Photos

1,814,723 foto caricate!

WunderBlogs® & News

Nearby

Qualità dell'aria

  Qualità dell'aria Indice AQ Inquinante
Not available.

Profondità neve

Stazione Profondità Altitudine

Attività sismica

Città  Distanza Mag. Data & Ora
Minimo Magnitudo Mostrato è 2.5.

Temperature delle acque costiere

Località Temperatura

Stations

Stazioni meteo nelle vicinanze

Ubicazione della stazione Temp. Raffreddamento del vento Punto di rugiada Umidità Vento Precip. Alt. Aggiornato Tipo